Time;durP1;ratioP1;P1;durP2;ratioP2;P2;SDS_P1;SDS_P2;PMS_P1;PMS_P2;Temp;Humidity;BMP_temperature;BMP_pressure;BME280_temperature;BME280_humidity;BME280_pressure;Samples;Min_cycle;Max_cycle;Signal;HPM_P1;HPM_P2
2020/12/30 00:00:49;;;;;;;34.45;29.67;;;19.40;41.00;;;;;;5057145;28;20099;-61
2020/12/30 00:03:15;;;;;;;33.50;29.73;;;19.40;41.00;;;;;;5055715;28;20413;-62
2020/12/30 00:05:42;;;;;;;35.10;27.13;;;19.40;41.10;;;;;;5061331;28;20111;-62
2020/12/30 00:08:08;;;;;;;29.75;26.52;;;19.40;41.00;;;;;;5057391;28;20025;-62
2020/12/30 00:10:34;;;;;;;31.40;27.20;;;19.40;41.00;;;;;;5066560;28;20419;-62
2020/12/30 00:13:01;;;;;;;30.75;26.58;;;19.40;41.00;;;;;;5063600;28;20683;-62
2020/12/30 00:15:27;;;;;;;30.80;25.70;;;19.40;41.00;;;;;;5071927;28;20094;-62
2020/12/30 00:17:53;;;;;;;27.65;23.73;;;19.40;41.00;;;;;;5058991;28;20478;-62
2020/12/30 00:20:22;;;;;;;25.98;21.33;;;19.40;41.00;;;;;;5059452;28;20052;-62
2020/12/30 00:22:48;;;;;;;26.77;21.70;;;19.40;41.00;;;;;;5092110;28;20798;-62
2020/12/30 00:25:16;;;;;;;27.60;23.25;;;19.30;40.90;;;;;;5063738;28;20028;-62
2020/12/30 00:27:43;;;;;;;27.02;22.77;;;19.30;41.60;;;;;;5062272;28;20135;-62
2020/12/30 00:30:17;;;;;;;24.05;21.45;;;19.30;40.90;;;;;;5092547;28;20033;-62
2020/12/30 00:32:45;;;;;;;24.85;20.23;;;19.30;40.90;;;;;;5064766;28;20338;-62
2020/12/30 00:35:13;;;;;;;22.63;20.02;;;19.30;41.00;;;;;;5066868;28;20033;-62
2020/12/30 00:37:39;;;;;;;23.00;19.33;;;19.30;41.00;;;;;;5059083;28;20391;-62
2020/12/30 00:40:06;;;;;;;25.08;19.20;;;19.20;40.90;;;;;;5067886;28;20037;-62
2020/12/30 00:42:34;;;;;;;21.80;18.25;;;19.20;40.90;;;;;;5063699;28;20465;-62
2020/12/30 00:45:01;;;;;;;18.52;15.68;;;19.20;41.00;;;;;;5060501;28;20017;-62
2020/12/30 00:47:28;;;;;;;21.10;17.45;;;19.20;41.00;;;;;;5043370;28;20505;-62
2020/12/30 00:49:56;;;;;;;19.60;16.88;;;19.20;41.00;;;;;;5062181;28;20541;-62
2020/12/30 00:52:22;;;;;;;18.77;14.77;;;19.20;41.00;;;;;;5064087;28;20028;-62
2020/12/30 00:54:52;;;;;;;18.67;13.95;;;19.20;41.00;;;;;;5063841;28;20378;-61
2020/12/30 00:57:27;;;;;;;17.38;15.13;;;19.20;41.00;;;;;;5063416;28;20086;-61
2020/12/30 00:59:53;;;;;;;15.75;13.27;;;19.10;41.00;;;;;;5061022;28;20025;-61
2020/12/30 01:02:23;;;;;;;18.48;13.95;;;19.10;41.00;;;;;;5048926;28;20075;-61
2020/12/30 01:04:50;;;;;;;16.55;13.63;;;19.10;41.20;;;;;;5062209;28;20032;-62
2020/12/30 01:07:18;;;;;;;15.82;13.68;;;19.10;41.10;;;;;;5060258;28;20024;-61
2020/12/30 01:09:44;;;;;;;15.43;12.70;;;19.10;41.10;;;;;;5077906;28;20471;-62
2020/12/30 01:12:11;;;;;;;15.02;11.18;;;19.10;41.10;;;;;;5065568;28;20115;-61
2020/12/30 01:14:37;;;;;;;11.90;10.57;;;19.10;41.10;;;;;;5061939;28;20478;-61
2020/12/30 01:17:03;;;;;;;13.57;11.77;;;19.10;41.10;;;;;;5069047;28;20040;-61
2020/12/30 01:19:29;;;;;;;15.20;11.68;;;19.00;41.10;;;;;;5063984;28;20491;-61
2020/12/30 01:21:55;;;;;;;12.40;10.57;;;19.00;41.10;;;;;;5066632;28;20043;-61
2020/12/30 01:24:20;;;;;;;12.20;10.52;;;19.00;41.80;;;;;;5064152;28;20028;-61
2020/12/30 01:26:47;;;;;;;12.32;10.18;;;19.00;41.10;;;;;;5061483;28;20029;-61
2020/12/30 01:29:13;;;;;;;12.25;10.32;;;19.00;41.10;;;;;;5062366;28;20047;-61
2020/12/30 01:31:39;;;;;;;13.82;9.70;;;19.00;41.10;;;;;;5056270;28;20165;-61
2020/12/30 01:34:06;;;;;;;13.23;10.40;;;19.00;41.10;;;;;;5062794;28;20108;-61
2020/12/30 01:36:33;;;;;;;12.20;9.65;;;19.00;41.20;;;;;;5071465;28;20032;-61
2020/12/30 01:38:59;;;;;;;11.82;9.40;;;19.00;41.30;;;;;;5062398;28;20025;-61
2020/12/30 01:41:25;;;;;;;12.13;9.40;;;18.90;41.20;;;;;;5055854;28;20052;-62
2020/12/30 01:44:08;;;;;;;11.05;9.40;;;18.90;41.20;;;;;;5056630;28;20020;-62
2020/12/30 01:46:40;;;;;;;11.52;8.23;;;18.90;41.20;;;;;;5040566;28;20025;-61
2020/12/30 01:49:12;;;;;;;11.40;8.40;;;18.90;41.30;;;;;;5061003;28;20475;-61
2020/12/30 01:51:40;;;;;;;12.43;9.57;;;18.90;41.10;;;;;;5055786;28;20059;-61
2020/12/30 01:54:10;;;;;;;10.43;8.27;;;18.90;41.20;;;;;;5063298;28;20043;-61
2020/12/30 01:56:37;;;;;;;12.25;9.45;;;18.90;41.20;;;;;;5066296;28;20822;-61
2020/12/30 01:59:08;;;;;;;11.93;8.85;;;18.90;41.30;;;;;;5059265;28;20075;-61
2020/12/30 02:01:39;;;;;;;12.82;9.38;;;18.80;41.20;;;;;;5066857;28;20055;-61
2020/12/30 02:04:06;;;;;;;;;;;18.90;41.30;;;;;;5057222;28;20025;-62
2020/12/30 02:06:34;;;;;;;14.40;10.50;;;18.90;41.40;;;;;;5060898;28;19909;-61
2020/12/30 02:09:03;;;;;;;12.88;9.63;;;18.90;41.20;;;;;;5054421;28;20099;-61
2020/12/30 02:11:29;;;;;;;14.48;11.02;;;18.90;41.30;;;;;;5054793;28;20025;-62
2020/12/30 02:14:06;;;;;;;16.58;11.23;;;18.90;41.30;;;;;;5065144;28;20033;-63
2020/12/30 02:16:45;;;;;;;15.15;11.13;;;18.90;41.30;;;;;;5065265;28;20033;-63
2020/12/30 02:19:11;;;;;;;13.52;10.00;;;18.90;41.40;;;;;;5091963;28;20060;-61
2020/12/30 02:21:37;;;;;;;12.93;9.23;;;18.80;41.30;;;;;;5056775;28;20544;-60
2020/12/30 02:24:04;;;;;;;13.00;10.40;;;18.80;41.30;;;;;;5066049;28;20031;-61
2020/12/30 02:26:30;;;;;;;13.02;8.98;;;18.80;41.40;;;;;;5066531;28;20100;-61
2020/12/30 02:28:56;;;;;;;14.82;9.77;;;18.80;41.30;;;;;;5061712;28;20577;-60
2020/12/30 02:31:22;;;;;;;13.13;9.90;;;18.80;41.40;;;;;;5053051;28;20040;-60
2020/12/30 02:33:48;;;;;;;12.13;8.77;;;18.80;41.40;;;;;;5067052;28;20074;-61
2020/12/30 02:36:14;;;;;;;11.40;8.55;;;18.80;41.40;;;;;;5062604;28;20024;-61
2020/12/30 02:38:40;;;;;;;10.75;7.40;;;18.80;41.40;;;;;;5063405;28;20032;-59
2020/12/30 02:41:06;;;;;;;12.80;8.85;;;18.70;41.30;;;;;;5058037;28;20132;-60
2020/12/30 02:43:32;;;;;;;11.27;7.55;;;18.80;41.50;;;;;;5067861;28;20024;-59
2020/12/30 02:45:58;;;;;;;13.48;8.13;;;18.80;41.40;;;;;;5067386;28;20471;-60
2020/12/30 02:48:24;;;;;;;13.20;7.63;;;18.70;41.40;;;;;;5061086;28;20029;-59
2020/12/30 02:50:53;;;;;;;8.18;6.47;;;18.70;41.40;;;;;;5070944;28;20070;-59
2020/12/30 02:53:20;;;;;;;10.88;6.97;;;18.70;41.40;;;;;;5060022;28;20119;-59
2020/12/30 02:55:47;;;;;;;9.50;6.47;;;18.70;41.30;;;;;;5072318;28;20029;-59
2020/12/30 02:58:13;;;;;;;10.50;5.85;;;18.70;41.30;;;;;;5062130;28;20415;-60
2020/12/30 03:00:39;;;;;;;9.68;6.30;;;18.70;41.40;;;;;;5060642;28;20719;-59
2020/12/30 03:03:05;;;;;;;9.18;6.28;;;18.70;41.40;;;;;;5061167;28;20036;-59
2020/12/30 03:05:31;;;;;;;10.05;5.30;;;18.70;41.40;;;;;;5066697;28;20033;-59
2020/12/30 03:07:57;;;;;;;7.55;5.78;;;18.70;41.40;;;;;;5068282;28;20035;-60
2020/12/30 03:10:23;;;;;;;9.05;5.30;;;18.60;41.30;;;;;;5066002;28;20020;-59
2020/12/30 03:12:49;;;;;;;7.53;5.90;;;18.70;41.40;;;;;;5064616;28;20529;-60
2020/12/30 03:15:15;;;;;;;6.70;4.85;;;18.70;41.50;;;;;;5066331;28;20382;-60
2020/12/30 03:17:41;;;;;;;6.28;4.93;;;18.60;41.50;;;;;;5071305;28;20039;-59
2020/12/30 03:20:06;;;;;;;7.88;4.82;;;18.60;41.50;;;;;;5049973;28;20033;-59
2020/12/30 03:22:32;;;;;;;6.32;4.43;;;18.60;41.50;;;;;;5058788;28;20033;-60
2020/12/30 03:24:58;;;;;;;5.57;4.60;;;18.60;41.50;;;;;;5065370;28;20524;-60
2020/12/30 03:27:24;;;;;;;7.43;4.72;;;18.60;41.40;;;;;;5067337;28;20028;-60
2020/12/30 03:29:50;;;;;;;6.35;4.50;;;18.60;41.50;;;;;;5065646;28;20103;-60
2020/12/30 03:32:16;;;;;;;4.93;4.20;;;18.60;41.50;;;;;;5064015;28;20105;-60
2020/12/30 03:34:42;;;;;;;5.65;4.75;;;18.60;41.50;;;;;;5062451;28;20029;-61
2020/12/30 03:37:08;;;;;;;6.90;4.30;;;18.60;41.40;;;;;;5065926;28;20491;-61
2020/12/30 03:39:34;;;;;;;6.28;4.22;;;18.60;41.50;;;;;;5066224;28;20082;-61
2020/12/30 03:42:00;;;;;;;5.32;4.25;;;18.60;41.50;;;;;;5066476;28;20399;-61
2020/12/30 03:44:26;;;;;;;5.05;3.95;;;18.60;41.50;;;;;;5060247;28;20036;-60
2020/12/30 03:46:52;;;;;;;6.07;4.20;;;18.50;41.40;;;;;;5059542;28;20031;-60
2020/12/30 03:49:18;;;;;;;5.78;4.35;;;18.50;41.40;;;;;;5065110;28;20036;-60
2020/12/30 03:51:44;;;;;;;7.03;4.30;;;18.60;41.50;;;;;;5075100;28;20037;-61
2020/12/30 03:54:10;;;;;;;5.50;4.10;;;18.50;41.40;;;;;;5064621;28;20029;-62
2020/12/30 03:56:36;;;;;;;6.03;3.88;;;18.50;41.50;;;;;;5064178;28;20103;-61
2020/12/30 03:59:02;;;;;;;4.80;3.75;;;18.50;41.50;;;;;;5061880;28;20031;-61
2020/12/30 04:01:28;;;;;;;3.95;3.33;;;18.50;41.50;;;;;;5067648;28;20029;-61
2020/12/30 04:03:54;;;;;;;4.15;3.30;;;18.50;41.50;;;;;;5055482;28;20036;-61
2020/12/30 04:06:20;;;;;;;5.43;3.30;;;18.50;41.50;;;;;;5064365;28;20029;-61
2020/12/30 04:08:46;;;;;;;9.50;4.18;;;18.50;41.50;;;;;;5057744;28;20025;-61
2020/12/30 04:11:12;;;;;;;6.47;3.65;;;18.50;41.60;;;;;;5066349;28;20021;-61
2020/12/30 04:13:38;;;;;;;5.60;3.42;;;18.50;41.60;;;;;;5056275;28;20048;-61
2020/12/30 04:16:04;;;;;;;5.57;3.60;;;18.40;41.50;;;;;;5070920;28;20082;-62
2020/12/30 04:18:30;;;;;;;5.28;3.58;;;18.50;41.60;;;;;;5060757;28;20024;-62
2020/12/30 04:20:56;;;;;;;5.55;3.90;;;18.50;41.60;;;;;;5065722;28;20032;-63
2020/12/30 04:23:22;;;;;;;5.95;3.47;;;18.50;41.60;;;;;;5062300;28;20036;-61
2020/12/30 04:25:48;;;;;;;6.75;3.38;;;18.50;41.60;;;;;;5063195;28;20033;-61
2020/12/30 04:28:17;;;;;;;6.28;3.97;;;18.50;41.60;;;;;;5062542;28;20082;-61
2020/12/30 04:30:43;;;;;;;7.55;3.90;;;18.50;41.60;;;;;;5055792;28;20021;-61
2020/12/30 04:33:10;;;;;;;6.13;3.55;;;18.50;41.70;;;;;;5054069;28;20025;-60
2020/12/30 04:35:36;;;;;;;5.50;3.65;;;18.50;41.70;;;;;;5061286;28;20489;-61
2020/12/30 04:38:04;;;;;;;6.47;3.67;;;18.50;41.60;;;;;;5063328;28;20028;-61
2020/12/30 04:40:30;;;;;;;5.72;3.63;;;18.40;41.60;;;;;;5053288;28;20028;-61
2020/12/30 04:43:01;;;;;;;4.13;3.05;;;18.50;41.70;;;;;;5058215;28;20538;-61
2020/12/30 04:45:27;;;;;;;4.68;3.42;;;18.40;41.60;;;;;;5094041;28;20028;-61
2020/12/30 04:47:57;;;;;;;5.25;3.17;;;18.40;41.60;;;;;;5059275;28;20028;-61
2020/12/30 04:50:23;;;;;;;6.20;3.33;;;18.40;41.50;;;;;;5064530;28;20021;-61
2020/12/30 04:52:50;;;;;;;5.63;2.95;;;18.40;41.60;;;;;;5060092;28;20024;-60
2020/12/30 04:55:24;;;;;;;4.88;2.67;;;18.40;41.60;;;;;;5066787;28;20098;-62
2020/12/30 04:58:10;;;;;;;5.95;3.13;;;18.40;41.60;;;;;;5060941;28;20474;-62
2020/12/30 05:00:38;;;;;;;5.18;3.65;;;18.40;41.60;;;;;;5064217;28;20040;-62
2020/12/30 05:03:09;;;;;;;4.93;2.80;;;18.40;41.60;;;;;;5054660;28;20501;-62
2020/12/30 05:05:37;;;;;;;3.70;2.65;;;18.40;41.50;;;;;;5055339;28;20120;-61
2020/12/30 05:08:14;;;;;;;5.00;2.80;;;18.40;41.60;;;;;;5059679;28;20020;-62
2020/12/30 05:10:45;;;;;;;4.95;2.90;;;18.30;41.60;;;;;;5057934;28;20016;-62
2020/12/30 05:13:11;;;;;;;4.00;2.55;;;18.40;41.70;;;;;;5059755;28;20422;-62
2020/12/30 05:15:37;;;;;;;5.88;3.20;;;18.30;41.50;;;;;;5066069;28;20058;-62
2020/12/30 05:18:05;;;;;;;3.58;2.28;;;18.30;41.50;;;;;;5064891;28;20035;-61
2020/12/30 05:20:36;;;;;;;4.28;2.38;;;18.30;41.60;;;;;;5070458;28;20025;-62
2020/12/30 05:23:05;;;;;;;3.13;2.63;;;18.30;41.60;;;;;;5060268;28;20036;-62
2020/12/30 05:25:37;;;;;;;3.75;2.35;;;18.30;41.60;;;;;;5066988;28;20054;-62
2020/12/30 05:28:06;;;;;;;2.88;2.40;;;18.30;41.50;;;;;;5047130;28;20062;-62
2020/12/30 05:30:33;;;;;;;3.17;2.40;;;18.30;41.50;;;;;;5059194;28;20029;-61
2020/12/30 05:32:59;;;;;;;7.45;2.80;;;18.30;41.50;;;;;;5058253;28;20083;-62
2020/12/30 05:35:27;;;;;;;4.50;2.25;;;18.30;41.50;;;;;;5045854;28;20458;-64
2020/12/30 05:37:53;;;;;;;3.80;2.35;;;18.30;41.50;;;;;;5061416;28;20032;-64
2020/12/30 05:40:23;;;;;;;2.63;2.17;;;18.30;41.60;;;;;;5063796;28;20032;-64
2020/12/30 05:42:50;;;;;;;3.17;2.20;;;18.20;41.50;;;;;;5055295;28;20033;-64
2020/12/30 05:45:23;;;;;;;3.50;2.08;;;18.20;41.60;;;;;;5060256;28;20070;-64
2020/12/30 05:47:50;;;;;;;2.58;2.00;;;18.20;41.60;;;;;;5066622;28;20115;-63
2020/12/30 05:50:25;;;;;;;3.25;1.88;;;18.20;41.60;;;;;;5066282;28;20019;-61
2020/12/30 05:52:52;;;;;;;5.35;2.45;;;18.20;41.60;;;;;;5060512;28;20035;-62
2020/12/30 05:55:28;;;;;;;4.55;2.78;;;18.20;41.70;;;;;;5060731;28;20741;-61
2020/12/30 05:57:54;;;;;;;3.67;2.13;;;18.20;41.70;;;;;;5060601;28;20116;-62
2020/12/30 06:00:28;;;;;;;3.40;2.08;;;18.20;41.70;;;;;;5060839;28;20099;-61
2020/12/30 06:02:54;;;;;;;2.45;1.63;;;18.10;41.70;;;;;;5070139;28;20024;-62
2020/12/30 06:05:23;;;;;;;3.42;2.50;;;18.10;41.70;;;;;;5054795;28;20368;-59
2020/12/30 06:07:56;;;;;;;4.22;2.45;;;18.10;41.70;;;;;;5077010;28;20040;-61
2020/12/30 06:10:24;;;;;;;3.72;2.20;;;18.10;41.70;;;;;;5062689;28;20860;-62
2020/12/30 06:13:02;;;;;;;2.58;1.90;;;18.10;41.70;;;;;;5061254;28;20094;-61
2020/12/30 06:15:30;;;;;;;2.90;1.98;;;18.10;41.70;;;;;;5043693;28;20531;-61
2020/12/30 06:18:01;;;;;;;5.55;2.30;;;18.10;41.70;;;;;;5060657;28;20397;-61
2020/12/30 06:20:31;;;;;;;3.58;1.98;;;18.10;41.70;;;;;;5055589;28;20021;-62
2020/12/30 06:23:15;;;;;;;4.22;2.22;;;18.10;41.70;;;;;;5058913;28;20033;-61
2020/12/30 06:25:50;;;;;;;3.30;1.83;;;18.10;41.80;;;;;;5070752;28;20497;-62
2020/12/30 06:28:22;;;;;;;3.65;2.22;;;18.10;41.80;;;;;;5067257;28;20027;-61
2020/12/30 06:30:50;;;;;;;6.95;2.47;;;18.10;41.60;;;;;;5058396;28;20051;-61
2020/12/30 06:33:21;;;;;;;4.55;2.38;;;18.10;41.80;;;;;;5072521;28;20025;-61
2020/12/30 06:35:53;;;;;;;6.63;2.72;;;18.00;41.70;;;;;;5068222;28;20064;-61
2020/12/30 06:38:29;;;;;;;3.95;2.33;;;18.00;41.80;;;;;;5065336;28;20113;-61
2020/12/30 06:41:03;;;;;;;4.15;2.22;;;18.00;42.30;;;;;;5071056;28;20054;-62
2020/12/30 06:43:40;;;;;;;4.78;2.00;;;18.00;41.70;;;;;;5064545;28;20059;-60
2020/12/30 06:46:07;;;;;;;4.00;2.38;;;18.00;41.70;;;;;;5064179;28;20021;-63
2020/12/30 06:48:59;;;;;;;4.05;2.40;;;18.00;41.70;;;;;;5063703;28;20028;-63
2020/12/30 06:51:26;;;;;;;3.65;2.10;;;18.00;41.70;;;;;;5058140;28;20477;-62
2020/12/30 06:53:53;;;;;;;3.65;2.50;;;18.00;41.70;;;;;;5068187;28;20038;-62
2020/12/30 06:56:39;;;;;;;4.57;2.33;;;18.00;41.70;;;;;;5066166;28;20028;-63
2020/12/30 06:59:07;;;;;;;5.63;2.67;;;17.90;41.60;;;;;;5063063;28;20036;-63
2020/12/30 07:01:59;;;;;;;6.38;3.15;;;18.00;41.80;;;;;;5064893;28;20483;-62
2020/12/30 07:04:26;;;;;;;3.95;2.60;;;17.90;41.60;;;;;;5061577;28;20386;-63
2020/12/30 07:06:53;;;;;;;5.00;2.53;;;18.00;41.70;;;;;;5053303;28;20032;-62
2020/12/30 07:09:39;;;;;;;5.65;2.67;;;17.90;41.50;;;;;;5060493;28;20405;-62
2020/12/30 07:12:06;;;;;;;11.75;8.43;;;17.80;40.90;;;;;;5061050;28;20020;-63
2020/12/30 07:14:37;;;;;;;14.05;10.85;;;17.80;41.30;;;;;;5067055;28;20028;-63
2020/12/30 07:17:04;;;;;;;;;;;17.90;41.40;;;;;;5067873;28;20405;-63
2020/12/30 07:19:38;;;;;;;17.00;12.52;;;17.80;41.50;;;;;;5068575;28;19954;-60
2020/12/30 07:22:11;;;;;;;16.50;12.52;;;17.80;41.30;;;;;;5069406;28;20033;-62
2020/12/30 07:24:40;;;;;;;17.10;11.05;;;17.80;41.30;;;;;;5064209;28;20055;-59
2020/12/30 07:27:11;;;;;;;13.85;9.88;;;17.80;41.30;;;;;;5060374;28;20037;-62
2020/12/30 07:29:38;;;;;;;14.23;10.15;;;17.70;41.30;;;;;;5061703;28;20037;-62
2020/12/30 07:32:06;;;;;;;10.32;8.20;;;17.70;41.30;;;;;;5070328;28;20032;-62
2020/12/30 07:34:34;;;;;;;11.38;7.40;;;17.70;41.20;;;;;;5065441;28;20037;-62
2020/12/30 07:37:02;;;;;;;10.25;6.18;;;17.70;41.20;;;;;;5057679;28;20028;-60
2020/12/30 07:39:39;;;;;;;15.63;6.47;;;17.70;41.20;;;;;;5044771;28;20025;-59
2020/12/30 07:42:07;;;;;;;7.57;5.30;;;17.70;41.10;;;;;;5079569;28;20076;-59
2020/12/30 07:44:34;;;;;;;8.20;5.10;;;17.70;41.10;;;;;;5058698;28;20386;-59
2020/12/30 07:47:01;;;;;;;10.20;4.72;;;17.70;41.10;;;;;;5066609;28;20470;-61
2020/12/30 07:49:27;;;;;;;12.40;5.88;;;17.70;41.00;;;;;;5062492;28;20033;-64
2020/12/30 07:51:56;;;;;;;11.80;6.07;;;17.60;40.90;;;;;;5064909;28;20094;-63
2020/12/30 07:54:23;;;;;;;10.02;6.13;;;17.60;40.90;;;;;;5063986;28;20028;-61
2020/12/30 07:56:50;;;;;;;9.65;6.00;;;17.60;41.00;;;;;;5063014;28;20070;-60
2020/12/30 07:59:24;;;;;;;7.65;5.13;;;17.60;41.00;;;;;;5066934;28;20111;-59
2020/12/30 08:01:54;;;;;;;7.95;5.05;;;17.60;40.80;;;;;;5064024;28;20055;-63
2020/12/30 08:04:20;;;;;;;6.47;3.95;;;17.60;40.90;;;;;;5064505;28;20029;-63
2020/12/30 08:06:47;;;;;;;10.95;5.30;;;17.60;41.00;;;;;;5062569;28;20029;-63
2020/12/30 08:09:13;;;;;;;27.75;18.48;;;17.60;40.90;;;;;;5065935;28;20367;-60
2020/12/30 08:11:54;;;;;;;35.40;25.65;;;17.60;40.90;;;;;;5065138;28;20036;-61
2020/12/30 08:14:22;;;;;;;35.13;26.05;;;17.60;40.90;;;;;;5060296;28;20040;-60
2020/12/30 08:17:06;;;;;;;36.78;30.77;;;17.60;41.00;;;;;;5059886;28;20029;-61
2020/12/30 08:19:42;;;;;;;38.30;32.55;;;17.60;41.10;;;;;;5060715;28;20028;-61
2020/12/30 08:22:19;;;;;;;48.28;37.90;;;17.70;41.10;;;;;;5058513;28;20075;-60
2020/12/30 08:24:54;;;;;;;42.63;34.65;;;17.60;41.20;;;;;;5092742;28;20867;-61
2020/12/30 08:27:27;;;;;;;40.25;31.83;;;17.70;41.20;;;;;;5059703;28;20057;-61
2020/12/30 08:29:54;;;;;;;32.95;28.30;;;17.70;41.10;;;;;;5067767;28;20043;-59
2020/12/30 08:32:41;;;;;;;30.80;24.92;;;17.70;41.30;;;;;;5060623;28;20100;-60
2020/12/30 08:35:17;;;;;;;28.30;22.83;;;17.70;41.40;;;;;;5062760;28;20048;-60
2020/12/30 08:37:45;;;;;;;24.35;18.75;;;17.70;41.30;;;;;;5059558;28;20064;-61
2020/12/30 08:40:24;;;;;;;23.50;18.77;;;17.70;41.30;;;;;;5063973;28;20095;-62
2020/12/30 08:42:53;;;;;;;23.80;19.25;;;17.80;41.30;;;;;;5065928;28;20483;-63
2020/12/30 08:45:28;;;;;;;22.30;18.27;;;17.80;41.30;;;;;;5048398;28;20471;-61
2020/12/30 08:47:56;;;;;;;20.35;15.35;;;17.80;41.30;;;;;;5061181;28;20032;-61
2020/12/30 08:50:25;;;;;;;18.85;15.50;;;17.80;41.00;;;;;;5061730;28;20024;-63
2020/12/30 08:52:55;;;;;;;22.60;19.23;;;17.90;41.00;;;;;;5064592;28;20064;-61
2020/12/30 08:55:21;;;;;;;27.60;21.65;;;17.80;41.00;;;;;;5093363;28;20033;-60
2020/12/30 08:57:48;;;;;;;29.45;24.58;;;17.90;41.00;;;;;;5064820;28;20086;-60
2020/12/30 09:00:14;;;;;;;24.20;20.75;;;17.90;41.00;;;;;;5063173;28;20028;-60
2020/12/30 09:02:41;;;;;;;27.02;20.45;;;17.90;40.90;;;;;;5065690;28;20028;-61
2020/12/30 09:05:07;;;;;;;29.27;19.73;;;17.90;40.50;;;;;;5059032;28;20522;-64
2020/12/30 09:07:33;;;;;;;24.27;18.00;;;18.00;40.70;;;;;;5084405;28;20380;-63
2020/12/30 09:10:10;;;;;;;19.00;14.85;;;18.00;40.80;;;;;;5059407;28;20021;-61
2020/12/30 09:12:37;;;;;;;20.60;14.85;;;17.90;40.60;;;;;;5067098;28;20520;-61
2020/12/30 09:15:05;;;;;;;17.10;13.43;;;18.00;40.70;;;;;;5063965;28;20040;-60
2020/12/30 09:17:32;;;;;;;17.20;12.65;;;18.00;40.60;;;;;;5057895;28;20043;-62
2020/12/30 09:20:08;;;;;;;14.85;12.25;;;18.00;40.60;;;;;;5058811;28;20083;-64
2020/12/30 09:22:34;;;;;;;13.45;11.45;;;18.00;40.40;;;;;;5056890;28;20112;-63
2020/12/30 09:24:59;;;;;;;13.43;10.10;;;18.10;40.60;;;;;;5061179;28;20099;-62
2020/12/30 09:27:25;;;;;;;15.18;9.98;;;18.10;40.50;;;;;;5050353;28;20032;-62
2020/12/30 09:30:14;;;;;;;15.18;9.25;;;18.10;40.40;;;;;;5066635;28;20817;-60
2020/12/30 09:32:41;;;;;;;13.30;7.80;;;18.10;40.30;;;;;;5066648;28;20036;-60
2020/12/30 09:35:10;;;;;;;14.23;9.18;;;18.20;40.30;;;;;;5064838;28;20052;-60
2020/12/30 09:37:37;;;;;;;16.77;8.43;;;18.20;40.30;;;;;;5056402;28;20036;-63
2020/12/30 09:40:11;;;;;;;10.38;8.15;;;18.30;40.30;;;;;;5051416;28;20036;-61
2020/12/30 09:42:39;;;;;;;10.23;7.25;;;18.30;40.00;;;;;;5063758;28;20044;-60
2020/12/30 09:45:08;;;;;;;11.65;7.18;;;18.30;40.00;;;;;;5061490;28;20021;-61
2020/12/30 09:47:37;;;;;;;10.10;6.53;;;18.40;40.10;;;;;;5066922;28;20386;-63
2020/12/30 09:50:05;;;;;;;8.35;5.78;;;18.40;39.70;;;;;;5060552;28;20099;-62
2020/12/30 09:52:42;;;;;;;6.28;5.63;;;18.40;39.50;;;;;;5064386;28;20029;-63
2020/12/30 09:55:10;;;;;;;7.32;4.63;;;18.40;39.30;;;;;;5066895;28;20146;-65
2020/12/30 09:57:37;;;;;;;9.15;6.30;;;18.40;39.10;;;;;;5063607;28;20032;-63
2020/12/30 10:00:08;;;;;;;8.55;5.35;;;18.40;38.90;;;;;;5064848;28;20091;-64
2020/12/30 10:02:33;;;;;;;;;;;18.40;38.60;;;;;;5061474;28;20043;-62
2020/12/30 10:05:00;;;;;;;7.72;4.35;;;18.40;39.30;;;;;;5066389;28;19916;-63
2020/12/30 10:07:26;;;;;;;6.28;3.83;;;18.40;38.50;;;;;;5067775;28;20445;-66
2020/12/30 10:09:53;;;;;;;7.97;4.90;;;18.40;38.40;;;;;;5066326;28;20025;-61
2020/12/30 10:12:22;;;;;;;6.50;4.43;;;18.40;38.50;;;;;;5046209;28;20052;-60
2020/12/30 10:14:48;;;;;;;5.25;3.75;;;18.40;38.40;;;;;;5068920;28;20052;-60
2020/12/30 10:17:14;;;;;;;6.32;3.60;;;18.40;38.40;;;;;;5062633;28;20439;-63
2020/12/30 10:19:40;;;;;;;8.00;3.85;;;18.40;38.30;;;;;;5064328;28;20086;-62
2020/12/30 10:22:11;;;;;;;4.80;2.65;;;18.40;38.30;;;;;;5068632;28;20032;-61
2020/12/30 10:24:44;;;;;;;3.70;2.38;;;18.40;38.10;;;;;;5068944;28;20032;-64
2020/12/30 10:27:12;;;;;;;7.07;2.92;;;18.40;38.10;;;;;;5070082;28;20070;-63
2020/12/30 10:29:39;;;;;;;5.05;2.63;;;18.40;37.90;;;;;;5065651;28;20021;-63
2020/12/30 10:32:05;;;;;;;4.47;2.45;;;18.40;38.00;;;;;;5065634;28;20051;-64
2020/12/30 10:34:32;;;;;;;6.32;2.80;;;18.40;38.00;;;;;;5060047;28;20029;-59
2020/12/30 10:37:02;;;;;;;5.35;2.45;;;18.40;37.80;;;;;;5064977;28;20044;-64
2020/12/30 10:39:28;;;;;;;7.72;2.55;;;18.50;37.80;;;;;;5067449;28;20025;-62
2020/12/30 10:41:59;;;;;;;3.95;2.63;;;18.50;37.80;;;;;;5065278;28;20037;-64
2020/12/30 10:44:25;;;;;;;4.53;2.42;;;18.50;37.50;;;;;;5069266;28;20390;-62
2020/12/30 10:46:54;;;;;;;6.13;2.47;;;18.60;37.60;;;;;;5069265;28;20762;-60
2020/12/30 10:49:21;;;;;;;4.72;2.33;;;18.60;37.60;;;;;;5065494;28;20025;-62
2020/12/30 10:51:49;;;;;;;5.03;2.60;;;18.70;37.60;;;;;;5062891;28;20033;-63
2020/12/30 10:54:16;;;;;;;4.35;2.40;;;18.80;37.40;;;;;;5068159;28;20033;-60
2020/12/30 10:56:52;;;;;;;5.65;2.50;;;18.80;37.20;;;;;;5070258;28;20062;-63
2020/12/30 10:59:19;;;;;;;6.53;3.03;;;18.90;37.00;;;;;;5063628;28;20032;-62
2020/12/30 11:01:49;;;;;;;7.82;2.80;;;18.90;37.00;;;;;;5066463;28;20142;-62
2020/12/30 11:04:15;;;;;;;5.43;2.75;;;19.00;36.60;;;;;;5065871;28;20407;-60
2020/12/30 11:06:42;;;;;;;3.67;2.50;;;19.00;36.90;;;;;;5060841;28;20096;-63
2020/12/30 11:09:08;;;;;;;3.47;2.22;;;19.10;36.70;;;;;;5065682;28;20028;-61
2020/12/30 11:11:35;;;;;;;5.15;2.72;;;19.10;36.40;;;;;;5057220;28;20626;-60
2020/12/30 11:14:01;;;;;;;10.07;3.08;;;19.20;36.20;;;;;;5060559;28;20037;-64
2020/12/30 11:16:27;;;;;;;4.40;2.20;;;19.20;36.10;;;;;;5048665;28;20062;-61
2020/12/30 11:18:53;;;;;;;3.00;2.00;;;19.30;36.10;;;;;;5048884;28;20409;-63
2020/12/30 11:21:19;;;;;;;5.00;2.47;;;19.40;36.30;;;;;;5059208;28;20043;-63
2020/12/30 11:23:45;;;;;;;4.22;2.53;;;19.50;36.90;;;;;;5055866;28;20487;-63
2020/12/30 11:26:12;;;;;;;4.03;2.42;;;19.60;36.30;;;;;;5064786;28;20040;-62
2020/12/30 11:28:38;;;;;;;3.65;2.67;;;19.70;36.10;;;;;;5063593;28;20037;-62
2020/12/30 11:31:05;;;;;;;6.93;2.92;;;19.80;35.90;;;;;;5059706;28;20056;-63
2020/12/30 11:33:31;;;;;;;8.77;3.20;;;19.90;35.80;;;;;;5058544;28;20013;-63
2020/12/30 11:35:57;;;;;;;7.30;2.92;;;20.10;35.80;;;;;;5061201;28;20028;-63
2020/12/30 11:38:23;;;;;;;6.78;3.47;;;20.30;35.50;;;;;;5061956;28;20025;-63
2020/12/30 11:40:49;;;;;;;6.85;3.53;;;20.50;35.40;;;;;;5064297;28;20131;-61
2020/12/30 11:43:15;;;;;;;9.45;3.90;;;20.80;35.10;;;;;;5061543;28;20379;-62
2020/12/30 11:45:41;;;;;;;6.40;3.25;;;21.30;34.80;;;;;;5066181;28;20029;-61
2020/12/30 11:48:07;;;;;;;4.93;2.75;;;21.90;33.60;;;;;;5057874;28;20044;-62
2020/12/30 11:50:35;;;;;;;7.95;3.60;;;22.50;32.90;;;;;;5064793;28;20750;-62
2020/12/30 11:53:02;;;;;;;7.03;4.95;;;23.20;31.90;;;;;;5056875;28;20032;-62
2020/12/30 11:55:29;;;;;;;7.03;3.55;;;23.90;31.70;;;;;;5063056;28;20094;-62
2020/12/30 11:57:55;;;;;;;4.88;3.10;;;24.50;30.70;;;;;;5057212;28;20091;-62
2020/12/30 12:00:21;;;;;;;6.25;3.00;;;25.10;29.90;;;;;;5060560;28;20098;-62
2020/12/30 12:02:47;;;;;;;4.88;2.92;;;25.80;29.60;;;;;;5066570;28;20021;-63
2020/12/30 12:05:14;;;;;;;3.55;2.53;;;26.40;29.10;;;;;;5056608;28;20031;-63
2020/12/30 12:07:41;;;;;;;4.43;2.63;;;27.10;28.70;;;;;;5055872;28;20067;-64
2020/12/30 12:10:08;;;;;;;6.57;2.40;;;27.80;28.40;;;;;;5057828;28;20036;-62
2020/12/30 12:12:35;;;;;;;9.15;2.53;;;28.40;27.70;;;;;;5057218;28;20025;-61
2020/12/30 12:15:03;;;;;;;8.15;3.08;;;29.00;27.40;;;;;;5059833;28;20044;-62
2020/12/30 12:17:29;;;;;;;5.63;2.65;;;29.60;26.80;;;;;;5058236;28;20107;-62
2020/12/30 12:19:56;;;;;;;6.80;3.17;;;30.10;26.70;;;;;;5065230;28;20124;-61
2020/12/30 12:22:21;;;;;;;7.50;2.63;;;30.60;26.40;;;;;;5062949;28;20060;-61
2020/12/30 12:24:48;;;;;;;3.75;2.58;;;31.10;26.00;;;;;;5055364;28;20450;-60
2020/12/30 12:27:14;;;;;;;5.63;2.55;;;31.60;25.80;;;;;;5066385;28;20083;-59
2020/12/30 12:29:42;;;;;;;5.63;2.50;;;32.00;25.50;;;;;;5062177;28;20028;-59
2020/12/30 12:32:12;;;;;;;9.73;3.00;;;32.40;25.20;;;;;;5060633;28;20104;-59
2020/12/30 12:34:39;;;;;;;;;;;32.70;24.40;;;;;;5066302;28;20028;-58
2020/12/30 12:37:06;;;;;;;3.92;2.28;;;33.20;27.10;;;;;;5060981;28;19908;-57
2020/12/30 12:39:33;;;;;;;7.90;3.45;;;33.60;24.40;;;;;;5062466;28;20029;-60
2020/12/30 12:42:00;;;;;;;5.25;3.95;;;33.90;24.00;;;;;;5064073;28;20885;-60
2020/12/30 12:44:28;;;;;;;8.13;3.88;;;34.30;24.20;;;;;;5057200;28;20063;-60
2020/12/30 12:46:54;;;;;;;5.65;3.55;;;34.50;23.90;;;;;;5061389;28;20040;-58